Time,TemperatureF,DewpointF,PressureIn,WindDirection,WindDirectionDegrees,WindSpeedMPH,WindSpeedGustMPH,Humidity,HourlyPrecipIn,Conditions,Clouds,dailyrainin,SoftwareType,DateUTC
2013-07-11 00:01:00,69.0,48.0,-100.00,ENE,69,11.0,16.0,47,0.00,,,-99.99,,2013-07-11 06:01:00,
2013-07-11 00:43:00,69.0,48.0,-100.00,ENE,72,15.0,17.0,47,0.00,,,-99.99,,2013-07-11 06:43:00,
2013-07-11 01:32:00,69.0,45.0,-100.00,ENE,64,11.0,15.0,43,0.00,,,-99.99,,2013-07-11 07:32:00,
2013-07-11 01:45:00,69.0,45.0,-100.00,ENE,65,10.0,13.0,42,0.00,,,-99.99,,2013-07-11 07:45:00,
2013-07-11 02:02:00,68.0,44.0,-100.00,ENE,64,10.0,13.0,41,0.00,,,-99.99,,2013-07-11 08:02:00,
2013-07-11 02:43:00,70.0,43.0,-100.00,ENE,64,11.0,16.0,38,0.00,,,-99.99,,2013-07-11 08:43:00,
2013-07-11 03:43:00,67.0,41.0,-100.00,ENE,76,4.0,8.0,38,0.00,,,-99.99,,2013-07-11 09:43:00,
2013-07-11 04:42:00,64.0,40.0,-100.00,SSW,210,0.0,2.0,42,0.00,,,-99.99,,2013-07-11 10:42:00,
2013-07-11 05:02:00,64.0,39.0,-100.00,SW,222,2.0,4.0,40,0.00,,,-99.99,,2013-07-11 11:02:00,
2013-07-11 05:43:00,62.0,39.0,-100.00,SSE,162,1.0,2.0,43,0.00,,,-99.99,,2013-07-11 11:43:00,
2013-07-11 06:01:00,61.0,39.0,-100.00,SE,133,1.0,3.0,44,0.00,,,-99.99,,2013-07-11 12:01:00,
2013-07-11 06:43:00,65.0,38.0,-100.00,East,100,7.0,9.0,37,0.00,,,-99.99,,2013-07-11 12:43:00,
2013-07-11 11:44:00,85.0,27.0,-100.00,SSE,154,11.0,19.0,12,0.00,,,-99.99,,2013-07-11 17:44:00,
2013-07-11 12:45:00,85.0,27.0,-100.00,South,189,12.0,23.0,12,0.00,,,-99.99,,2013-07-11 18:45:00,
2013-07-11 13:44:00,85.0,31.0,-100.00,SSW,199,12.0,24.0,14,0.00,,,-99.99,,2013-07-11 19:44:00,
2013-07-11 14:46:00,87.0,29.0,-100.00,South,181,16.0,26.0,13,0.00,,,-99.99,,2013-07-11 20:46:00,
2013-07-11 15:44:00,89.0,29.0,-100.00,SE,145,9.0,19.0,12,0.00,,,-99.99,,2013-07-11 21:44:00,
2013-07-11 16:45:00,87.0,29.0,-100.00,South,171,17.0,26.0,12,0.00,,,-99.99,,2013-07-11 22:45:00,
2013-07-11 17:03:00,87.0,31.0,-100.00,South,174,19.0,25.0,13,0.00,,,-99.99,,2013-07-11 23:03:00,
2013-07-11 17:46:00,86.0,30.0,-100.00,South,178,17.0,23.0,14,0.00,,,-99.99,,2013-07-11 23:46:00,
2013-07-11 18:03:00,85.0,31.0,-100.00,South,178,17.0,23.0,14,0.00,,,-99.99,,2013-07-12 00:03:00,
2013-07-11 18:43:00,85.0,30.0,-100.00,SSE,168,16.0,20.0,14,0.00,,,-99.99,,2013-07-12 00:43:00,
2013-07-11 19:25:00,84.0,33.0,-100.00,South,179,16.0,22.0,16,0.00,,,-99.99,,2013-07-12 01:25:00,
2013-07-11 19:44:00,82.0,35.0,-100.00,South,179,15.0,21.0,18,0.00,,,-99.99,,2013-07-12 01:44:00,
2013-07-11 20:43:00,78.0,36.0,-100.00,ESE,116,4.0,7.0,22,0.00,,,-99.99,,2013-07-12 02:43:00,
2013-07-11 21:43:00,74.0,37.0,-100.00,East,90,5.0,9.0,26,0.00,,,-99.99,,2013-07-12 03:43:00,
2013-07-11 22:43:00,72.0,37.0,-100.00,SE,130,6.0,10.0,27,0.00,,,-99.99,,2013-07-12 04:43:00,
2013-07-11 22:53:00,73.0,37.0,-100.00,SE,124,8.0,11.0,27,0.00,,,-99.99,,2013-07-12 04:53:00,
2013-07-11 23:02:00,74.0,36.0,-100.00,SE,141,9.0,16.0,26,0.00,,,-99.99,,2013-07-12 05:02:00,
2013-07-11 23:43:00,74.0,39.0,-100.00,SSE,161,29.0,40.0,28,0.00,,,-99.99,,2013-07-12 05:43:00,